Aérodrome :
LOGIN :

S'inscrire | Disclaimer

   EN    FR    IT 

 










Légende :    VFR   VFR Marginal   IFR   IFR Intensif   IFR Très Intensif
Visi : 
Plafond : 
>= 8 km
>= 3000ft
5 à 8 km
1000 à 3000 ft
1500m à 5 km
500 à 1000 ft
800 à 1500m
200 à 500 ft
< 800m
< 200 ft
Symboles :   Orages  Brouillard  Fortes neiges  Fortes précipitations  Vent > 20 kt
SIGMETs :   Divers  Orages  Givrage  Turbulence  Onde Orograph.  Cendres Volcan.







- Altitude de l'aérodrome : 776 ft
- Code IATA : RMS


ETAR - Ramstein Air Base

DERNIER METAR :
  • 151139Z 23009G17KT 9999 BKN014 OVC020 03/03 A2942 RMK AO2A RAE14RAB21E39 SLP975 $

METARs EXPIRÉS :
  • 151131Z 22013KT 9000 -RA OVC016 03/03 A2942 RMK AO2A RAE14RAB21 SLP974 $
  • 151121Z 22013G20KT 9999 -RA OVC014 03/03 A2941 RMK AO2A RAE14RAB21 SLP970 $
  • 151114Z 22012G17KT 9999 OVC014 03/03 A2941 RMK AO2A RAE14 SLP971 $
  • 151106Z 22007G15KT 9999 -RA OVC012 03/03 A2941 RMK AO2A SLP971 $
  • 151056Z 23006KT 9999 -RA BKN011 OVC016 03/03 A2941 RMK AO2A RAB07 SLP970 P0003 T00340030 $
  • 151027Z AUTO 22012G16KT 9999 -RA BKN013 03/03 A2940 RMK AO2 RAB07 BKN V OVC SLP967 $
  • 151007Z AUTO 21008G15KT 9999 -RA BKN011 03/03 A2941 RMK AO2 RAB07 SLP970 $
  • 150956Z 21007KT 9999 BKN013 03/03 A2941 RMK AO2A RAB0856E00RAB38E49 SLP970 P0000 T00290025 $
  • 150938Z 21007KT 9999 -RA BKN011 03/02 A2941 RMK AO2A RAB0856E00RAB38 SLP970 $
  • 150931Z 20008KT 9999 BKN011 03/02 A2941 RMK AO2A RAB0856E00 CIG 011V015 SLP970 $
  • 150921Z 21008KT 9999 BKN015 BKN030 OVC041 02/02 A2940 RMK AO2A RASNB0856E00 SLP968 $
  • 150900Z 19010G17KT 9999 OVC017 02/02 A2941 RMK AO2A RASNB0856E00 SLP971 $

TAF TAF ETAR
Valide du 15 à 10h jusqu'au 16 à 16h UTC


151002Z 1510/1616 22009KT 8000 -RASN BKN018 610309 QNH2941INS
TEMPO 1510/1513 24012G20KT BKN010
BECMG 1515/1516 23009KT 9999 NSW BKN020 610309 QNH2944INS
BECMG 1517/1518 23009KT 9999 BKN010 610309 QNH2947INS
TEMPO 1518/1600 8000 -RASN
BECMG 1601/1602 01006KT 9999 SCT025 QNH2954INS TX03/1514Z TNM01/1604Z
Pas de NOTAMs connus pour ce terrain.



MET'MAP, la Météo Aéronautique d'un coup d'oeil ! - Copyright ORBIFLY Décembre 2007 - Disclaimer

ORBIFLY MET'MAP TEAM :

Programmation & Développement : Alexandra Zaïnal
Conception & Développement : Baudouin d'Aumeries
Co-Programmation & Développement : Marc-Olivier Méhu
Soutien technique & logistique : Manuel Goepfert

Contact : metmap@orbifly.com




SOURCES & CREDITS :

   NOAA